Time;durP1;ratioP1;P1;durP2;ratioP2;P2;SDS_P1;SDS_P2;PMS_P1;PMS_P2;Temp;Humidity;BMP_temperature;BMP_pressure;BME280_temperature;BME280_humidity;BME280_pressure;Samples;Min_cycle;Max_cycle;Signal;HPM_P1;HPM_P2
2021/10/26 00:02:59;;;;;;;22.80;17.58;;;;;;;11.43;71.79;100532.88;10178967;28;20501;-62
2021/10/26 00:08:01;;;;;;;20.00;17.88;;;;;;;11.41;72.04;100534.81;10174814;29;20880;-61
2021/10/26 00:13:02;;;;;;;18.20;16.30;;;;;;;11.53;72.81;100547.19;10171437;29;20139;-63
2021/10/26 00:18:04;;;;;;;17.85;16.00;;;;;;;11.71;72.04;100551.97;10174979;29;20107;-63
2021/10/26 00:23:06;;;;;;;19.48;16.30;;;;;;;11.75;71.46;100554.28;10177696;29;20214;-62
2021/10/26 00:28:09;;;;;;;18.42;16.10;;;;;;;11.64;71.80;100557.81;10171389;29;20071;-63
2021/10/26 00:33:10;;;;;;;16.60;14.52;;;;;;;11.64;72.51;100556.97;10172904;29;20142;-62
2021/10/26 00:38:12;;;;;;;19.58;16.85;;;;;;;11.78;72.25;100561.19;10177205;29;20126;-63
2021/10/26 00:43:14;;;;;;;18.95;16.95;;;;;;;11.70;72.20;100555.66;10144188;29;20047;-62
2021/10/26 00:48:16;;;;;;;17.48;15.38;;;;;;;11.78;72.06;100569.19;10166968;29;20051;-61
2021/10/26 00:53:18;;;;;;;17.25;15.23;;;;;;;11.72;72.37;100575.84;10166144;29;20111;-63
2021/10/26 00:58:20;;;;;;;18.08;15.05;;;;;;;11.75;72.31;100569.44;10176018;29;20167;-62
2021/10/26 01:03:22;;;;;;;18.27;15.00;;;;;;;11.70;71.89;100567.16;10175842;29;20107;-63
2021/10/26 01:08:23;;;;;;;16.98;14.57;;;;;;;11.56;73.04;100570.91;10166398;28;20066;-63
2021/10/26 01:13:26;;;;;;;15.48;13.98;;;;;;;11.56;73.39;100565.59;10174947;29;20071;-66
2021/10/26 01:18:28;;;;;;;16.88;14.48;;;;;;;11.57;72.76;100561.09;10170590;29;20420;-63
2021/10/26 01:23:31;;;;;;;19.30;14.32;;;;;;;11.56;73.25;100570.91;10168182;29;20228;-62
2021/10/26 01:28:33;;;;;;;19.73;15.38;;;;;;;11.30;74.51;100560.50;10164560;29;20127;-62
2021/10/26 01:33:35;;;;;;;16.55;14.75;;;;;;;11.24;74.51;100574.28;10168559;29;20132;-61
2021/10/26 01:38:37;;;;;;;16.70;14.88;;;;;;;11.18;75.15;100573.94;10161471;28;20058;-62
2021/10/26 01:43:39;;;;;;;15.82;13.85;;;;;;;11.14;75.75;100563.53;10155101;28;20080;-62
2021/10/26 01:48:41;;;;;;;17.08;14.80;;;;;;;11.27;76.03;100570.53;10157194;29;20047;-62
2021/10/26 01:53:42;;;;;;;16.17;14.23;;;;;;;11.22;76.18;100556.75;10170669;29;20194;-63
2021/10/26 01:58:44;;;;;;;17.92;15.13;;;;;;;11.30;76.43;100544.53;10176310;29;20143;-61
2021/10/26 02:03:45;;;;;;;15.55;13.95;;;;;;;11.24;76.34;100552.97;10166368;29;20126;-65
2021/10/26 02:08:47;;;;;;;15.95;14.05;;;;;;;11.25;77.03;100552.00;10173291;29;20079;-63
2021/10/26 02:13:48;;;;;;;15.18;13.60;;;;;;;11.39;76.86;100558.06;10166727;29;20731;-63
2021/10/26 02:18:51;;;;;;;16.23;13.23;;;;;;;11.40;76.44;100549.97;10173102;29;20146;-61
2021/10/26 02:23:54;;;;;;;14.77;13.25;;;;;;;11.40;76.83;100555.28;10171896;29;20255;-64
2021/10/26 02:28:56;;;;;;;14.98;13.45;;;;;;;11.37;77.71;100562.69;10168551;29;20518;-62
2021/10/26 02:33:57;;;;;;;15.20;13.23;;;;;;;11.28;77.58;100572.25;10170721;29;20525;-61
2021/10/26 02:38:59;;;;;;;14.05;12.35;;;;;;;11.19;77.97;100573.81;10180960;29;20070;-62
2021/10/26 02:44:01;;;;;;;13.13;11.82;;;;;;;11.09;79.61;100578.16;10175944;29;20147;-62
2021/10/26 02:49:02;;;;;;;14.50;12.32;;;;;;;11.08;80.09;100568.47;10193268;28;20134;-63
2021/10/26 02:54:05;;;;;;;13.55;12.25;;;;;;;11.01;80.90;100567.25;10173341;29;20082;-63
2021/10/26 02:59:07;;;;;;;14.23;12.55;;;;;;;11.05;80.65;100563.38;10178743;29;20075;-62
2021/10/26 03:04:08;;;;;;;14.65;12.00;;;;;;;11.04;80.60;100570.53;10157514;29;20078;-63
2021/10/26 03:09:11;;;;;;;13.95;12.65;;;;;;;11.17;80.84;100585.56;10146802;29;20075;-62
2021/10/26 03:14:12;;;;;;;11.70;10.52;;;;;;;11.19;79.95;100588.97;10124495;29;20741;-63
2021/10/26 03:19:14;;;;;;;12.70;11.00;;;;;;;11.16;80.30;100591.88;10156151;29;20210;-63
2021/10/26 03:24:15;;;;;;;14.15;11.85;;;;;;;11.05;80.67;100595.34;10144504;29;20129;-65
2021/10/26 03:29:17;;;;;;;12.13;10.85;;;;;;;11.04;80.98;100599.81;10166021;29;20482;-62
2021/10/26 03:34:18;;;;;;;15.02;13.15;;;;;;;11.01;81.82;100583.25;10175899;23;20036;-59
2021/10/26 03:39:19;;;;;;;14.90;11.50;;;;;;;11.06;81.82;100592.56;10229392;28;21051;-59
2021/10/26 03:44:21;;;;;;;14.38;11.80;;;;;;;11.06;81.96;100586.38;10222133;28;20082;-59
2021/10/26 03:49:22;;;;;;;13.57;12.18;;;;;;;11.01;82.22;100604.56;10229473;28;20129;-59
2021/10/26 03:54:24;;;;;;;14.38;12.27;;;;;;;11.06;82.96;100613.03;10225540;28;20075;-59
2021/10/26 03:59:32;;;;;;;14.85;12.48;;;;;;;11.03;82.60;100594.63;10224236;28;20126;-59
2021/10/26 04:04:35;;;;;;;12.93;11.63;;;;;;;11.18;82.97;100604.09;10222465;28;20134;-58
2021/10/26 04:10:00;;;;;;;11.65;10.50;;;;;;;11.16;83.44;100606.03;10227950;28;20070;-59
2021/10/26 04:15:02;;;;;;;14.18;11.93;;;;;;;11.30;83.33;100611.16;10210059;28;20065;-59
2021/10/26 04:20:04;;;;;;;12.77;10.00;;;;;;;11.39;82.29;100617.56;10226195;28;20055;-61
2021/10/26 04:25:06;;;;;;;12.75;10.05;;;;;;;11.41;81.82;100614.75;10226815;28;20563;-59
2021/10/26 04:30:08;;;;;;;15.02;11.68;;;;;;;11.29;82.96;100616.59;10225752;28;20127;-59
2021/10/26 04:35:10;;;;;;;12.63;11.07;;;;;;;11.24;83.42;100619.59;10225267;28;20122;-59
2021/10/26 04:40:11;;;;;;;13.02;11.73;;;;;;;11.21;83.93;100625.16;10218820;28;20047;-64
2021/10/26 04:45:13;;;;;;;13.63;11.25;;;;;;;11.27;83.71;100632.72;10224899;28;20154;-58
2021/10/26 04:50:15;;;;;;;12.75;10.75;;;;;;;11.22;83.44;100629.53;10226505;28;22831;-58
2021/10/26 04:55:18;;;;;;;12.52;11.23;;;;;;;11.09;84.52;100632.31;10225321;28;20127;-60
2021/10/26 05:00:19;;;;;;;14.15;11.70;;;;;;;11.11;84.62;100632.19;10202865;28;20050;-60
2021/10/26 05:05:21;;;;;;;13.07;11.75;;;;;;;11.16;85.01;100643.34;10218114;28;20469;-59
2021/10/26 05:10:22;;;;;;;14.63;10.93;;;;;;;11.20;83.98;100639.47;10216367;28;20111;-57
2021/10/26 05:15:23;;;;;;;12.35;11.05;;;;;;;11.31;83.78;100642.13;10214313;28;20059;-58
2021/10/26 05:20:27;;;;;;;12.85;11.43;;;;;;;11.36;83.74;100651.59;10216042;28;20465;-58
2021/10/26 05:25:29;;;;;;;11.57;10.38;;;;;;;11.43;83.23;100655.50;10224831;28;20090;-58
2021/10/26 05:30:30;;;;;;;11.55;10.30;;;;;;;11.46;83.12;100644.59;10218342;28;20130;-58
2021/10/26 05:35:32;;;;;;;13.85;10.25;;;;;;;11.65;82.77;100668.84;10211250;28;20055;-58
2021/10/26 05:40:33;;;;;;;11.77;10.57;;;;;;;11.73;82.23;100670.06;10190146;28;20099;-58
2021/10/26 05:45:34;;;;;;;11.15;9.95;;;;;;;11.74;81.64;100666.41;10226381;28;20137;-58
2021/10/26 05:50:36;;;;;;;10.32;8.98;;;;;;;11.71;81.56;100664.00;10227309;28;20139;-61
2021/10/26 05:55:38;;;;;;;10.75;9.65;;;;;;;11.77;82.36;100676.84;10214181;28;20137;-59
2021/10/26 06:00:43;;;;;;;17.40;15.95;;;;;;;11.84;81.77;100686.94;10211005;28;20532;-60
2021/10/26 06:05:45;;;;;;;14.82;13.73;;;;;;;11.90;81.29;100680.22;10215070;28;20044;-59
2021/10/26 06:10:52;;;;;;;13.18;10.07;;;;;;;11.87;81.57;100690.31;10229180;28;20141;-57
2021/10/26 06:15:53;;;;;;;10.45;9.35;;;;;;;11.85;81.69;100685.09;10220357;28;20189;-57
2021/10/26 06:20:55;;;;;;;10.07;8.23;;;;;;;11.93;81.04;100704.03;10221111;28;20051;-57
2021/10/26 06:26:00;;;;;;;11.57;7.80;;;;;;;11.98;81.16;100706.31;10219589;28;20146;-56
2021/10/26 06:31:02;;;;;;;;;;;;;;;11.96;80.52;100701.13;10218731;28;20142;-59
2021/10/26 06:36:04;;;;;;;11.25;9.00;;;;;;;11.89;81.14;100704.38;10217089;28;20272;-58
2021/10/26 06:41:06;;;;;;;15.52;10.20;;;;;;;11.91;80.63;100702.44;10219642;28;20055;-57
2021/10/26 06:46:07;;;;;;;10.40;9.25;;;;;;;11.86;81.38;100708.13;10228778;28;20869;-59
2021/10/26 06:51:09;;;;;;;11.50;10.23;;;;;;;11.82;81.99;100725.34;10230310;28;20483;-58
2021/10/26 06:56:14;;;;;;;12.32;10.55;;;;;;;11.93;81.86;100721.88;10211459;28;20632;-58
2021/10/26 07:01:15;;;;;;;9.43;8.52;;;;;;;11.80;81.94;100722.81;10225325;28;20125;-59
2021/10/26 07:06:17;;;;;;;8.80;7.90;;;;;;;11.97;81.85;100734.00;10222234;28;20185;-58
2021/10/26 07:11:19;;;;;;;9.38;8.48;;;;;;;11.79;82.67;100742.44;10226574;28;21426;-58
2021/10/26 07:16:20;;;;;;;8.45;7.47;;;;;;;11.83;82.71;100756.41;10227735;28;20193;-58
2021/10/26 07:21:21;;;;;;;8.65;7.40;;;;;;;11.97;82.11;100761.50;10222973;28;20054;-58
2021/10/26 07:26:23;;;;;;;11.70;7.88;;;;;;;12.11;81.56;100763.09;10224554;28;20130;-57
2021/10/26 07:31:25;;;;;;;8.95;7.88;;;;;;;12.14;81.33;100768.19;10225395;28;20134;-57
2021/10/26 07:36:38;;;;;;;10.10;9.10;;;;;;;12.10;81.64;100758.75;10221636;28;20786;-57
2021/10/26 07:41:39;;;;;;;10.70;8.65;;;;;;;12.20;81.90;100766.84;10220143;28;20551;-58
2021/10/26 07:46:41;;;;;;;10.27;7.88;;;;;;;12.27;81.27;100778.75;10219060;28;20137;-56
2021/10/26 07:51:42;;;;;;;9.05;7.57;;;;;;;12.62;80.07;100764.38;10202133;28;20173;-57
2021/10/26 07:56:44;;;;;;;11.40;8.45;;;;;;;12.58;80.02;100776.31;10225109;28;20058;-57
2021/10/26 08:01:46;;;;;;;9.57;8.02;;;;;;;12.66;79.53;100789.88;10216105;28;20174;-58
2021/10/26 08:06:48;;;;;;;8.57;7.65;;;;;;;12.69;79.20;100786.97;10220351;28;20105;-59
2021/10/26 08:11:49;;;;;;;9.65;7.53;;;;;;;12.57;79.49;100795.97;10222033;28;22175;-57
2021/10/26 08:16:51;;;;;;;12.02;7.82;;;;;;;12.52;80.18;100803.47;10221856;28;20138;-58
2021/10/26 08:21:52;;;;;;;9.05;7.63;;;;;;;12.52;80.10;100795.47;10224014;28;20133;-57
2021/10/26 08:26:58;;;;;;;9.63;7.95;;;;;;;12.72;79.15;100788.53;10207806;28;20132;-57
2021/10/26 08:32:12;;;;;;;9.85;8.07;;;;;;;12.94;78.36;100798.34;10223794;28;20071;-57
2021/10/26 08:37:14;;;;;;;10.25;8.05;;;;;;;13.03;77.30;100796.72;10221459;28;21593;-58
2021/10/26 08:42:17;;;;;;;10.82;9.93;;;;;;;13.01;77.72;100810.19;10220214;28;20138;-58
2021/10/26 08:47:19;;;;;;;12.90;8.98;;;;;;;12.94;78.12;100817.03;10221157;28;20555;-58
2021/10/26 08:52:20;;;;;;;9.88;8.77;;;;;;;12.95;78.37;100810.69;10222868;28;20065;-58
2021/10/26 08:57:22;;;;;;;9.77;8.07;;;;;;;12.94;78.38;100802.81;10216818;28;20146;-59
2021/10/26 09:02:35;;;;;;;12.73;8.52;;;;;;;12.87;79.26;100802.47;10217171;28;20130;-58
2021/10/26 09:07:37;;;;;;;9.60;8.55;;;;;;;13.41;77.09;100790.06;10217473;28;20054;-58
2021/10/26 09:17:43;;;;;;;8.38;7.28;;;;;;;14.19;72.47;100797.72;10214678;28;20051;-58
2021/10/26 09:22:54;;;;;;;8.52;7.60;;;;;;;13.81;73.97;100797.38;10214105;28;20714;-58
2021/10/26 09:28:11;;;;;;;8.23;6.70;;;;;;;14.54;71.92;100799.97;10218863;28;20039;-58
2021/10/26 09:33:28;;;;;;;7.68;6.78;;;;;;;16.08;65.99;100809.25;10216767;28;20066;-59
2021/10/26 09:38:30;;;;;;;9.88;6.60;;;;;;;17.60;61.22;100804.22;10179051;28;20920;-59
2021/10/26 09:43:31;;;;;;;8.48;6.32;;;;;;;20.14;52.13;100800.59;10181113;28;20061;-60
2021/10/26 09:48:34;;;;;;;6.97;5.85;;;;;;;22.20;45.73;100799.28;10177387;28;20135;-60
2021/10/26 09:53:36;;;;;;;7.10;5.00;;;;;;;20.63;49.28;100798.75;10178554;28;20440;-60
2021/10/26 09:58:37;;;;;;;8.10;4.65;;;;;;;21.84;46.17;100802.69;10172964;28;20079;-64
2021/10/26 10:03:41;;;;;;;4.30;3.90;;;;;;;21.78;47.22;100814.25;10171279;28;20052;-59
2021/10/26 10:08:44;;;;;;;4.60;4.20;;;;;;;21.14;46.49;100814.56;10171723;28;20142;-61
2021/10/26 10:13:54;;;;;;;5.40;4.15;;;;;;;22.66;44.30;100810.97;10177417;28;20056;-60
2021/10/26 10:18:56;;;;;;;3.85;3.35;;;;;;;23.89;41.20;100811.81;10184987;28;20046;-60
2021/10/26 10:24:00;;;;;;;5.53;3.13;;;;;;;25.18;39.14;100810.34;10181338;28;20055;-60
2021/10/26 10:29:02;;;;;;;4.80;3.40;;;;;;;27.15;33.21;100804.13;10178113;28;20055;-60
2021/10/26 10:34:03;;;;;;;4.88;2.75;;;;;;;28.60;31.01;100814.22;10180042;28;20669;-60
2021/10/26 10:39:07;;;;;;;3.80;2.70;;;;;;;24.83;36.99;100823.22;10173469;28;20078;-60
2021/10/26 10:44:21;;;;;;;3.88;3.05;;;;;;;28.94;29.73;100806.41;10177666;28;20118;-61
2021/10/26 10:49:23;;;;;;;4.80;2.90;;;;;;;30.79;27.77;100802.56;10173580;28;20146;-61
2021/10/26 10:54:37;;;;;;;5.35;3.00;;;;;;;31.73;26.53;100796.56;10186507;28;20127;-62
2021/10/26 10:59:42;;;;;;;3.60;3.10;;;;;;;31.24;27.63;100787.19;10184067;28;20618;-60
2021/10/26 11:04:43;;;;;;;3.50;2.60;;;;;;;29.62;28.39;100789.56;10179521;28;20131;-58
2021/10/26 11:09:50;;;;;;;4.93;3.40;;;;;;;28.35;31.26;100785.03;10185343;28;20142;-58
2021/10/26 11:14:56;;;;;;;6.45;2.75;;;;;;;32.46;24.65;100770.03;10232095;28;22052;-61
2021/10/26 11:20:27;;;;;;;3.65;1.55;;;;;;;34.35;21.98;100762.53;10228586;28;20059;-61
2021/10/26 11:25:40;;;;;;;4.15;2.60;;;;;;;36.39;21.75;100759.22;10221890;28;20047;-61
2021/10/26 11:30:42;;;;;;;4.13;2.67;;;;;;;36.67;20.53;100758.78;10230835;28;20255;-60
2021/10/26 11:35:46;;;;;;;3.72;2.75;;;;;;;31.47;26.02;100764.22;10228709;28;20163;-61
2021/10/26 11:41:07;;;;;;;3.05;2.53;;;;;;;27.51;31.64;100769.00;10230562;28;20571;-61
2021/10/26 11:46:12;;;;;;;3.63;2.58;;;;;;;24.46;36.85;100757.34;10230687;28;20079;-61
2021/10/26 11:51:35;;;;;;;3.67;2.00;;;;;;;24.98;36.28;100764.03;10226603;28;20134;-62
2021/10/26 11:56:39;;;;;;;4.90;2.40;;;;;;;31.67;27.16;100761.81;10223978;28;20748;-61
2021/10/26 12:01:57;;;;;;;3.10;2.30;;;;;;;35.40;22.34;100751.41;10230975;28;20191;-62
2021/10/26 12:07:07;;;;;;;3.22;2.72;;;;;;;35.92;20.60;100743.84;10221048;28;20055;-62
2021/10/26 12:12:13;;;;;;;4.72;2.95;;;;;;;27.34;30.86;100746.84;10209665;28;20053;-61
2021/10/26 12:17:20;;;;;;;3.38;2.17;;;;;;;24.06;37.20;100751.69;10225398;28;20081;-60
2021/10/26 12:22:25;;;;;;;4.00;2.20;;;;;;;22.26;41.35;100743.44;10226227;28;20054;-61
2021/10/26 12:27:36;;;;;;;4.25;3.00;;;;;;;21.50;43.13;100749.84;10227546;28;20058;-59
2021/10/26 12:32:41;;;;;;;6.45;2.78;;;;;;;20.30;46.35;100744.81;10224282;28;20046;-59
2021/10/26 12:37:43;;;;;;;2.35;2.15;;;;;;;19.56;49.15;100747.66;10224278;28;20080;-59
2021/10/26 12:43:00;;;;;;;4.50;2.42;;;;;;;19.30;49.89;100727.09;10227542;28;20035;-59
2021/10/26 12:48:07;;;;;;;3.20;2.45;;;;;;;19.30;49.58;100727.09;10223086;28;20066;-60
2021/10/26 12:53:37;;;;;;;3.78;2.65;;;;;;;19.85;48.20;100743.63;10224595;28;20058;-61
2021/10/26 12:58:46;;;;;;;2.85;2.13;;;;;;;25.88;35.09;100724.63;10229909;28;20150;-61
2021/10/26 13:03:56;;;;;;;1.70;1.55;;;;;;;24.91;34.65;100716.88;10223139;28;20105;-61
2021/10/26 13:08:59;;;;;;;2.80;2.20;;;;;;;21.45;40.63;100711.63;10224590;28;20071;-61
2021/10/26 13:14:08;;;;;;;2.38;1.30;;;;;;;19.85;44.88;100716.63;10231182;28;21795;-61
2021/10/26 13:19:13;;;;;;;2.28;1.20;;;;;;;18.90;48.06;100718.84;10229164;28;20110;-61
2021/10/26 13:24:24;;;;;;;1.73;1.30;;;;;;;18.55;49.63;100712.69;10245450;23;20472;-57
2021/10/26 13:29:36;;;;;;;5.65;2.75;;;;;;;18.18;50.92;100719.28;10255648;28;20057;-56
2021/10/26 13:34:37;;;;;;;4.18;1.33;;;;;;;17.93;51.19;100712.09;10255021;28;20053;-59
2021/10/26 13:39:39;;;;;;;8.77;2.45;;;;;;;17.64;52.47;100732.09;10252409;28;20129;-57
2021/10/26 13:44:41;;;;;;;2.45;1.33;;;;;;;17.52;51.28;100731.50;10255335;28;20074;-57
2021/10/26 13:49:43;;;;;;;2.88;1.52;;;;;;;17.34;52.24;100722.59;10254980;28;20072;-56
2021/10/26 13:54:44;;;;;;;4.00;1.02;;;;;;;17.58;51.22;100725.50;10251829;28;20137;-59
2021/10/26 13:59:45;;;;;;;2.58;0.90;;;;;;;18.53;48.06;100716.53;10246631;28;20082;-57
2021/10/26 14:04:47;;;;;;;1.98;1.10;;;;;;;20.44;43.80;100718.91;10243233;28;20146;-55
2021/10/26 14:09:48;;;;;;;2.47;1.10;;;;;;;22.48;38.51;100717.25;10249008;28;20134;-58
2021/10/26 14:14:50;;;;;;;1.23;0.70;;;;;;;22.67;37.40;100731.22;10254023;28;20137;-58
2021/10/26 14:19:51;;;;;;;3.72;0.70;;;;;;;20.65;40.84;100726.38;10254777;28;20051;-57
2021/10/26 14:24:54;;;;;;;1.50;0.63;;;;;;;21.36;40.34;100723.53;10253174;28;20055;-55
2021/10/26 14:29:55;;;;;;;2.83;0.97;;;;;;;24.81;34.21;100746.38;10244256;28;20095;-58
2021/10/26 14:34:59;;;;;;;2.33;1.40;;;;;;;26.03;31.24;100735.31;10265660;28;20160;-55
2021/10/26 14:56:33;;;;;;;2.83;1.00;;;;;;;21.09;40.75;100752.88;10259390;28;20175;-56
2021/10/26 15:01:42;;;;;;;2.63;0.63;;;;;;;19.66;43.18;100751.03;10267954;28;20168;-58
2021/10/26 15:06:44;;;;;;;2.80;1.23;;;;;;;18.68;45.89;100733.75;10247995;28;20054;-54
2021/10/26 15:11:48;;;;;;;2.28;1.70;;;;;;;18.23;46.85;100740.34;10235254;28;20940;-57
2021/10/26 15:16:50;;;;;;;;;;;;;;;17.94;47.79;100751.47;10264800;28;20047;-57
2021/10/26 15:37:25;;;;;;;2.35;1.40;;;;;;;16.95;50.67;100777.59;10259460;28;20526;-56
2021/10/26 15:42:26;;;;;;;3.65;1.30;;;;;;;16.80;51.34;100774.53;10256540;28;20839;-59
2021/10/26 15:47:28;;;;;;;2.38;0.93;;;;;;;16.49;52.66;100790.97;10263566;28;20124;-58
2021/10/26 15:52:30;;;;;;;3.72;1.30;;;;;;;16.24;53.79;100782.59;10245463;28;20173;-56
2021/10/26 15:57:32;;;;;;;3.10;1.30;;;;;;;16.02;54.84;100793.72;10265157;28;20087;-55
2021/10/26 16:02:37;;;;;;;4.45;2.22;;;;;;;15.99;55.17;100785.94;10263316;28;20133;-58
2021/10/26 16:07:43;;;;;;;3.42;1.25;;;;;;;15.88;56.35;100785.13;10262614;28;20449;-55
2021/10/26 16:12:48;;;;;;;2.00;1.08;;;;;;;15.71;56.23;100775.09;10260229;28;20104;-57
2021/10/26 16:17:50;;;;;;;3.03;1.60;;;;;;;15.67;56.70;100793.34;10267207;28;20811;-59
2021/10/26 16:22:52;;;;;;;3.17;1.13;;;;;;;15.45;57.49;100788.28;10264334;28;20074;-59
2021/10/26 16:27:53;;;;;;;3.33;1.75;;;;;;;15.39;58.21;100800.41;10263254;28;20050;-56
2021/10/26 16:32:55;;;;;;;3.15;1.88;;;;;;;15.15;58.19;100790.94;10260803;28;20129;-60
2021/10/26 16:37:57;;;;;;;3.13;1.63;;;;;;;15.14;59.36;100820.59;10249519;28;20054;-56
2021/10/26 16:43:11;;;;;;;3.90;2.13;;;;;;;15.03;59.73;100825.06;10255936;28;20450;-57
2021/10/26 16:48:14;;;;;;;4.40;2.17;;;;;;;14.91;59.62;100838.75;10259743;28;20074;-58
2021/10/26 16:53:35;;;;;;;3.72;2.22;;;;;;;14.84;61.06;100868.75;10253486;28;20057;-60
2021/10/26 16:58:38;;;;;;;4.10;2.28;;;;;;;14.85;61.43;100870.47;10258103;28;20077;-54
2021/10/26 17:03:45;;;;;;;4.65;2.80;;;;;;;14.82;61.12;100876.09;10257030;28;20145;-54
2021/10/26 17:08:48;;;;;;;5.65;2.53;;;;;;;14.72;61.50;100891.28;10252821;28;20150;-59
2021/10/26 17:13:50;;;;;;;5.30;2.70;;;;;;;14.63;62.33;100887.59;10251611;28;20146;-58
2021/10/26 17:18:51;;;;;;;3.67;2.65;;;;;;;14.59;62.50;100893.31;10258252;28;20442;-58
2021/10/26 17:23:53;;;;;;;6.10;3.30;;;;;;;14.50;62.70;100895.81;10261212;28;20125;-57
2021/10/26 17:28:54;;;;;;;5.65;3.45;;;;;;;14.47;63.47;100901.44;10234261;28;20484;-59
2021/10/26 17:33:56;;;;;;;4.30;3.58;;;;;;;14.37;63.69;100889.84;10253491;28;20079;-58
2021/10/26 17:39:00;;;;;;;3.75;2.50;;;;;;;14.29;63.90;100900.34;10248388;28;20512;-59
2021/10/26 17:44:01;;;;;;;3.40;2.05;;;;;;;14.12;63.85;100908.00;10237217;28;20061;-57
2021/10/26 17:49:04;;;;;;;4.80;2.85;;;;;;;13.99;64.41;100912.72;10246509;28;20098;-54
2021/10/26 17:54:06;;;;;;;4.82;3.17;;;;;;;14.00;64.18;100927.78;10258139;28;20078;-55
2021/10/26 17:59:08;;;;;;;3.75;3.13;;;;;;;13.88;65.13;100940.34;10250178;28;20057;-55
2021/10/26 18:04:09;;;;;;;3.80;3.30;;;;;;;13.86;65.09;100945.00;10256668;28;20145;-55
2021/10/26 18:09:11;;;;;;;4.63;2.97;;;;;;;13.65;65.76;100928.91;10263379;28;20055;-56
2021/10/26 18:14:15;;;;;;;4.63;3.42;;;;;;;13.78;66.19;100952.78;10263865;28;20046;-54
2021/10/26 18:19:32;;;;;;;5.80;4.13;;;;;;;13.58;65.95;100908.97;10261231;28;20042;-57
2021/10/26 18:24:34;;;;;;;6.32;4.10;;;;;;;13.77;65.89;100948.44;10264199;28;20109;-54
2021/10/26 18:29:36;;;;;;;5.88;3.50;;;;;;;13.78;66.86;100942.97;10264192;28;20046;-57
2021/10/26 18:34:37;;;;;;;4.47;3.97;;;;;;;13.74;66.23;100956.72;10260579;28;20073;-57
2021/10/26 18:39:39;;;;;;;3.40;2.80;;;;;;;13.74;66.62;100952.22;10264143;28;20109;-56
2021/10/26 18:44:52;;;;;;;6.57;3.90;;;;;;;13.71;66.76;100973.03;10261463;28;20141;-58
2021/10/26 18:49:53;;;;;;;5.90;3.75;;;;;;;13.57;65.81;100955.41;10264176;28;20194;-55
2021/10/26 18:54:54;;;;;;;6.80;4.70;;;;;;;13.69;66.85;100973.16;10241394;28;20127;-57
2021/10/26 18:59:56;;;;;;;6.18;4.60;;;;;;;13.66;65.70;100976.09;10262646;28;20145;-54
2021/10/26 19:04:57;;;;;;;6.90;5.22;;;;;;;13.64;67.33;100977.19;10260244;28;20121;-58
2021/10/26 19:10:00;;;;;;;5.35;4.20;;;;;;;13.69;67.83;100983.00;10257136;28;20055;-56
2021/10/26 19:15:02;;;;;;;6.43;4.20;;;;;;;13.68;67.26;100976.81;10256156;28;20061;-54
2021/10/26 19:20:06;;;;;;;7.50;4.47;;;;;;;13.51;66.90;100969.31;10254567;28;20367;-58
2021/10/26 19:25:09;;;;;;;5.67;5.17;;;;;;;13.51;67.62;100988.03;10245143;23;1074985;-61
2021/10/26 19:30:12;;;;;;;5.45;4.03;;;;;;;13.23;67.54;100979.53;10328322;28;20587;-60
2021/10/26 19:35:13;;;;;;;7.85;3.75;;;;;;;13.14;66.50;100982.94;10266027;28;20388;-59
2021/10/26 19:40:15;;;;;;;5.13;3.28;;;;;;;12.97;67.98;100993.16;10265995;28;20042;-61
2021/10/26 19:45:16;;;;;;;5.00;3.38;;;;;;;12.87;68.63;101005.53;10270417;28;20137;-59
2021/10/26 19:50:18;;;;;;;5.10;3.75;;;;;;;12.87;68.63;101010.88;10268090;28;20148;-60
2021/10/26 19:55:21;;;;;;;5.28;3.47;;;;;;;12.83;68.56;101009.41;10268306;28;20054;-60
2021/10/26 20:00:23;;;;;;;7.15;3.75;;;;;;;12.75;68.35;101011.84;10267113;28;20065;-60
2021/10/26 20:05:25;;;;;;;7.38;3.13;;;;;;;12.70;68.84;100999.69;10263765;28;20057;-61
2021/10/26 20:10:27;;;;;;;5.20;3.65;;;;;;;12.55;69.16;101001.72;10270419;28;20705;-60
2021/10/26 20:15:29;;;;;;;6.45;4.07;;;;;;;12.56;70.22;101005.22;10266260;28;20557;-65
2021/10/26 20:20:38;;;;;;;4.85;3.67;;;;;;;12.63;70.12;100986.94;10268474;28;20059;-61
2021/10/26 20:25:41;;;;;;;6.15;4.13;;;;;;;12.68;69.50;100984.75;10266354;28;20171;-61
2021/10/26 20:30:44;;;;;;;5.05;4.28;;;;;;;12.68;70.10;100990.91;10265781;28;20122;-61
2021/10/26 20:35:46;;;;;;;4.68;4.18;;;;;;;12.64;70.11;100989.47;10273204;28;20420;-61
2021/10/26 20:40:48;;;;;;;5.00;3.28;;;;;;;12.55;69.79;101001.72;10269591;28;20147;-61
2021/10/26 20:45:49;;;;;;;4.63;3.17;;;;;;;12.37;71.13;101013.81;10271750;28;20121;-61
2021/10/26 20:50:53;;;;;;;4.03;3.05;;;;;;;12.39;71.08;101011.88;10248542;28;20050;-60
2021/10/26 20:55:56;;;;;;;;;;;;;;;12.47;70.66;101003.28;10240923;28;20051;-61
2021/10/26 21:00:59;;;;;;;5.40;3.40;;;;;;;12.40;70.72;101008.25;10233154;28;19957;-60
2021/10/26 21:06:01;;;;;;;3.75;3.08;;;;;;;12.38;70.59;101008.38;10239711;28;20067;-61
2021/10/26 21:11:05;;;;;;;5.55;3.67;;;;;;;12.30;71.09;101007.25;10236408;28;20058;-60
2021/10/26 21:16:07;;;;;;;5.68;3.35;;;;;;;12.10;70.84;101000.72;10241894;28;20050;-61
2021/10/26 21:21:08;;;;;;;6.30;3.13;;;;;;;12.16;71.59;101005.59;10242835;28;20066;-60
2021/10/26 21:26:10;;;;;;;5.53;3.25;;;;;;;12.13;71.57;101000.47;10248668;28;20085;-59
2021/10/26 21:31:12;;;;;;;6.53;3.90;;;;;;;12.11;71.77;101007.75;10234658;28;20078;-61
2021/10/26 21:36:24;;;;;;;5.32;3.03;;;;;;;12.14;72.14;101012.88;10239308;28;20323;-60
2021/10/26 21:41:26;;;;;;;8.25;3.88;;;;;;;12.19;71.54;101024.06;10239193;28;20131;-61
2021/10/26 21:46:27;;;;;;;4.03;2.70;;;;;;;12.01;71.20;101016.47;10234087;28;20099;-60
2021/10/26 21:51:28;;;;;;;4.90;2.85;;;;;;;11.82;71.49;101021.44;10236370;28;20047;-60
2021/10/26 21:56:30;;;;;;;4.95;3.38;;;;;;;11.77;71.88;101021.78;10240345;28;20121;-60
2021/10/26 22:01:37;;;;;;;3.42;3.10;;;;;;;11.78;72.61;101014.59;10241038;28;20130;-60
2021/10/26 22:06:41;;;;;;;5.53;3.15;;;;;;;11.90;72.07;101028.84;10239579;28;20497;-60
2021/10/26 22:11:47;;;;;;;5.17;2.87;;;;;;;11.86;71.98;101025.56;10229089;28;20078;-61
2021/10/26 22:16:49;;;;;;;4.50;3.00;;;;;;;11.76;72.50;101019.22;10244205;28;20076;-60
2021/10/26 22:21:52;;;;;;;4.85;3.40;;;;;;;11.71;72.57;101018.69;10240109;28;20078;-60
2021/10/26 22:26:53;;;;;;;3.17;2.60;;;;;;;11.58;72.65;101014.25;10239538;28;20757;-60
2021/10/26 22:31:55;;;;;;;4.60;2.90;;;;;;;11.55;73.23;101019.81;10235162;28;20127;-59
2021/10/26 22:36:56;;;;;;;4.57;2.65;;;;;;;11.44;73.97;101007.25;10242478;28;20173;-60
2021/10/26 22:41:59;;;;;;;5.15;2.72;;;;;;;11.40;74.15;101018.25;10235041;28;20071;-60
2021/10/26 22:47:00;;;;;;;8.93;3.50;;;;;;;11.27;73.64;101021.81;10239609;28;20655;-59
2021/10/26 22:52:05;;;;;;;4.28;3.05;;;;;;;11.30;74.05;101020.72;10240196;28;20081;-60
2021/10/26 22:57:07;;;;;;;5.72;3.90;;;;;;;11.21;74.19;101014.22;10245320;28;20201;-60
2021/10/26 23:02:11;;;;;;;3.45;3.00;;;;;;;11.22;73.89;101021.25;10236947;28;20608;-60
2021/10/26 23:07:13;;;;;;;;;;;;;;;11.04;75.05;101028.75;10245186;28;20098;-60
2021/10/26 23:12:14;;;;;;;4.53;3.53;;;;;;;11.08;74.76;101034.69;10243949;28;20010;-62
2021/10/26 23:17:15;;;;;;;6.65;3.50;;;;;;;11.06;74.51;101020.63;10240545;28;20075;-59
2021/10/26 23:22:17;;;;;;;5.13;3.88;;;;;;;11.02;75.48;101029.81;10241219;28;20221;-59
2021/10/26 23:27:18;;;;;;;4.15;3.33;;;;;;;11.13;75.08;101035.25;10238476;28;20134;-59
2021/10/26 23:32:20;;;;;;;7.50;3.42;;;;;;;11.09;74.75;101039.06;10236192;28;20075;-59
2021/10/26 23:37:21;;;;;;;3.90;3.50;;;;;;;10.89;75.27;101030.66;10238325;28;20067;-59
2021/10/26 23:42:23;;;;;;;6.88;4.63;;;;;;;10.60;76.86;101030.03;10239424;28;20194;-60
2021/10/26 23:47:24;;;;;;;6.00;4.10;;;;;;;10.56;77.96;101024.03;10231706;28;20059;-60